Time;durP1;ratioP1;P1;durP2;ratioP2;P2;SDS_P1;SDS_P2;PMS_P1;PMS_P2;Temp;Humidity;BMP_temperature;BMP_pressure;BME280_temperature;BME280_humidity;BME280_pressure;Samples;Min_cycle;Max_cycle;Signal;HPM_P1;HPM_P2
2022/03/20 00:00:22;;;;;;;27.10;19.15;;;6.20;99.90;;;;;;6140653;23;20182;-87
2022/03/20 00:02:54;;;;;;;30.13;18.92;;;6.30;99.90;;;;;;6134409;23;20207;-85
2022/03/20 00:05:21;;;;;;;24.92;19.30;;;6.60;99.90;;;;;;6132219;23;20160;-86
2022/03/20 00:07:52;;;;;;;29.05;18.92;;;6.60;99.90;;;;;;6142301;23;20206;-86
2022/03/20 00:10:23;;;;;;;26.85;20.20;;;6.60;99.90;;;;;;6152750;23;20163;-86
2022/03/20 00:12:56;;;;;;;25.92;19.08;;;6.50;99.90;;;;;;6146095;23;20252;-86
2022/03/20 00:15:24;;;;;;;29.15;19.40;;;6.50;99.90;;;;;;6135722;23;20164;-88
2022/03/20 00:17:52;;;;;;;28.58;20.90;;;6.40;99.90;;;;;;6132026;23;20240;-86
2022/03/20 00:20:19;;;;;;;28.77;19.50;;;6.40;99.90;;;;;;6129257;23;20186;-86
2022/03/20 00:22:47;;;;;;;28.75;20.63;;;6.40;99.90;;;;;;6129538;23;20291;-85
2022/03/20 00:25:14;;;;;;;26.73;20.52;;;6.00;99.90;;;;;;6146610;23;20227;-84
2022/03/20 00:27:43;;;;;;;29.15;20.40;;;6.40;99.90;;;;;;6131369;23;20654;-85
2022/03/20 00:30:12;;;;;;;28.17;19.95;;;6.40;99.90;;;;;;6129494;23;20251;-85
2022/03/20 00:32:39;;;;;;;28.05;21.17;;;6.50;99.90;;;;;;6130458;23;20275;-86
2022/03/20 00:35:07;;;;;;;28.52;18.60;;;6.10;99.90;;;;;;6131228;23;20231;-86
2022/03/20 00:37:36;;;;;;;31.67;19.15;;;6.50;99.90;;;;;;6130909;23;20176;-86
2022/03/20 00:40:04;;;;;;;27.45;19.00;;;6.60;99.90;;;;;;6134404;23;20184;-85
2022/03/20 00:42:33;;;;;;;22.35;17.63;;;6.60;99.90;;;;;;6145128;23;20247;-86
2022/03/20 00:45:29;;;;;;;28.98;19.65;;;6.10;99.90;;;;;;6130363;23;20184;-87
2022/03/20 00:48:07;;;;;;;24.42;17.58;;;6.20;99.90;;;;;;6131327;23;20255;-86
2022/03/20 00:50:44;;;;;;;27.67;18.77;;;6.40;99.90;;;;;;6131148;23;20552;-86
2022/03/20 00:53:20;;;;;;;27.48;20.27;;;6.40;99.90;;;;;;6102148;23;20200;-86
2022/03/20 00:56:00;;;;;;;22.63;18.05;;;6.50;99.90;;;;;;6105368;23;20161;-86
2022/03/20 00:58:53;;;;;;;26.48;18.67;;;6.50;99.90;;;;;;6102539;23;20180;-85
2022/03/20 01:01:41;;;;;;;29.73;19.63;;;6.50;99.90;;;;;;6102113;23;20188;-86
2022/03/20 01:04:20;;;;;;;24.05;17.52;;;6.50;99.90;;;;;;6104349;23;20177;-85
2022/03/20 01:07:06;;;;;;;28.88;18.75;;;6.50;99.90;;;;;;6101908;23;20180;-85
2022/03/20 01:09:53;;;;;;;27.58;18.85;;;6.50;99.90;;;;;;6101695;23;20183;-84
2022/03/20 01:12:33;;;;;;;25.90;19.55;;;6.40;99.90;;;;;;6097143;23;20590;-85
2022/03/20 01:15:03;;;;;;;24.80;19.38;;;6.30;99.90;;;;;;6100839;23;20169;-84
2022/03/20 01:17:47;;;;;;;28.00;18.10;;;6.30;99.90;;;;;;6111759;23;20177;-84
2022/03/20 01:21:03;;;;;;;29.58;18.50;;;6.30;99.90;;;;;;6120783;23;20185;-87
2022/03/20 01:23:37;;;;;;;27.75;18.75;;;6.30;99.90;;;;;;6112754;23;20221;-86
2022/03/20 01:26:21;;;;;;;26.55;18.52;;;6.30;99.90;;;;;;6109396;23;20176;-86
2022/03/20 01:29:13;;;;;;;25.15;17.50;;;5.90;99.90;;;;;;6118696;23;20256;-86
2022/03/20 01:32:04;;;;;;;26.48;18.33;;;6.30;99.90;;;;;;6106300;23;20588;-86
2022/03/20 01:34:41;;;;;;;23.88;18.42;;;6.20;99.90;;;;;;6103734;23;20192;-86
2022/03/20 01:37:29;;;;;;;27.88;21.33;;;5.90;99.90;;;;;;6102616;23;20255;-86
2022/03/20 01:40:00;;;;;;;30.50;19.70;;;6.20;99.90;;;;;;6113092;23;20185;-85
2022/03/20 01:42:39;;;;;;;25.90;18.45;;;6.40;99.90;;;;;;6113613;23;20197;-87
2022/03/20 01:45:16;;;;;;;23.20;17.52;;;6.20;99.90;;;;;;6104787;23;20196;-86
2022/03/20 01:47:53;;;;;;;26.30;18.70;;;6.20;99.90;;;;;;6103869;23;20608;-86
2022/03/20 01:50:27;;;;;;;27.92;18.90;;;6.10;99.90;;;;;;6105199;23;20168;-86
2022/03/20 01:53:32;;;;;;;24.42;17.33;;;6.10;99.90;;;;;;6104529;23;20207;-86
2022/03/20 01:56:24;;;;;;;27.48;18.40;;;5.70;99.90;;;;;;6104253;23;20256;-87
2022/03/20 01:59:07;;;;;;;25.20;18.45;;;6.00;99.90;;;;;;6104726;23;20173;-86
2022/03/20 02:01:44;;;;;;;24.50;18.52;;;6.00;99.90;;;;;;6103571;23;20200;-85
2022/03/20 02:04:20;;;;;;;23.60;17.10;;;5.90;99.90;;;;;;6104634;23;20175;-86
2022/03/20 02:07:01;;;;;;;26.88;18.20;;;6.10;99.90;;;;;;6105283;23;20176;-86
2022/03/20 02:09:36;;;;;;;25.98;17.73;;;6.00;99.90;;;;;;6106168;23;20200;-86
2022/03/20 02:12:10;;;;;;;26.88;17.90;;;6.00;99.90;;;;;;6107382;23;20204;-86
2022/03/20 02:24:56;;;;;;;25.48;18.05;;;6.10;99.90;;;;;;6075895;23;20220;-86
2022/03/20 02:27:47;;;;;;;23.70;17.17;;;6.10;99.90;;;;;;6043417;23;20249;-87
2022/03/20 02:30:36;;;;;;;23.27;17.83;;;6.10;99.90;;;;;;6031457;23;20205;-86
2022/03/20 02:33:10;;;;;;;25.45;17.17;;;6.10;99.90;;;;;;6098534;23;20240;-87
2022/03/20 02:35:40;;;;;;;28.42;18.45;;;6.10;99.90;;;;;;6124133;23;20184;-87
2022/03/20 02:38:18;;;;;;;24.30;17.52;;;6.00;99.90;;;;;;6118574;23;20160;-86
2022/03/20 02:40:57;;;;;;;24.10;17.33;;;6.00;99.90;;;;;;6125039;23;20216;-87
2022/03/20 02:43:30;;;;;;;26.00;18.63;;;6.00;99.90;;;;;;6106604;23;20306;-87
2022/03/20 02:46:15;;;;;;;25.58;17.92;;;6.00;99.90;;;;;;6104989;23;20185;-87
2022/03/20 02:48:45;;;;;;;27.63;17.58;;;5.80;99.90;;;;;;6106589;23;20205;-86
2022/03/20 02:51:13;;;;;;;24.98;17.25;;;6.00;99.90;;;;;;6109025;23;20181;-86
2022/03/20 02:53:51;;;;;;;24.98;18.17;;;6.10;99.90;;;;;;6108494;23;20201;-85
2022/03/20 02:56:21;;;;;;;28.15;18.25;;;6.00;99.90;;;;;;6114631;23;20161;-87
2022/03/20 02:58:51;;;;;;;24.25;16.33;;;6.00;99.90;;;;;;6111674;23;20173;-85
2022/03/20 03:01:35;;;;;;;24.25;17.10;;;6.00;99.90;;;;;;6108112;23;20208;-86
2022/03/20 03:04:11;;;;;;;24.83;17.23;;;5.90;99.90;;;;;;6110891;23;20195;-86
2022/03/20 03:06:39;;;;;;;22.85;17.10;;;5.90;99.90;;;;;;6108800;23;20157;-85
2022/03/20 03:12:09;;;;;;;27.58;17.42;;;6.00;99.90;;;;;;6104224;23;20281;-85
2022/03/20 03:17:27;;;;;;;26.15;18.75;;;6.10;99.90;;;;;;6104187;23;20228;-86
2022/03/20 03:20:01;;;;;;;25.08;17.58;;;6.10;99.90;;;;;;6104250;23;20181;-84
2022/03/20 03:22:42;;;;;;;24.00;17.55;;;6.10;99.90;;;;;;6105651;23;20211;-86
2022/03/20 03:25:32;;;;;;;25.80;17.83;;;6.10;99.90;;;;;;6102705;23;20180;-87
2022/03/20 03:28:34;;;;;;;29.58;19.45;;;5.70;99.90;;;;;;6103551;23;20197;-87
2022/03/20 03:31:09;;;;;;;27.23;18.20;;;5.60;99.90;;;;;;6102449;23;20565;-87
2022/03/20 03:35:41;;;;;;;26.17;18.75;;;5.90;99.90;;;;;;6102289;23;20290;-87
2022/03/20 03:36:37;;;;;;;26.70;18.13;;;6.00;99.90;;;;;;6102633;23;20184;-87
2022/03/20 03:39:19;;;;;;;23.73;17.75;;;5.90;99.90;;;;;;6114302;23;20172;-86
2022/03/20 03:44:50;;;;;;;25.52;18.63;;;5.80;99.90;;;;;;6101948;23;20637;-87
2022/03/20 03:47:29;;;;;;;25.90;17.95;;;5.80;99.90;;;;;;6109593;23;20176;-85
2022/03/20 03:50:02;;;;;;;26.88;17.30;;;5.40;99.90;;;;;;6105113;23;20612;-86
2022/03/20 03:52:46;;;;;;;22.45;16.83;;;5.80;99.90;;;;;;6124281;23;20185;-84
2022/03/20 03:55:16;;;;;;;22.58;16.23;;;5.90;99.90;;;;;;6121220;23;20264;-85
2022/03/20 03:57:56;;;;;;;23.88;16.45;;;5.90;99.90;;;;;;6117304;23;20180;-84
2022/03/20 04:03:09;;;;;;;21.92;15.70;;;6.00;99.90;;;;;;6118443;23;20217;-86
2022/03/20 04:05:41;;;;;;;25.05;17.00;;;5.70;99.90;;;;;;6120086;23;20180;-85
2022/03/20 04:11:10;;;;;;;23.70;17.77;;;6.10;99.90;;;;;;6102655;23;20183;-86
2022/03/20 04:13:52;;;;;;;23.13;16.40;;;6.00;99.90;;;;;;6104115;23;20208;-86
2022/03/20 04:16:31;;;;;;;25.58;17.75;;;6.00;99.90;;;;;;6103004;23;20577;-86
2022/03/20 04:19:06;;;;;;;25.45;17.92;;;6.10;99.90;;;;;;6105099;23;20184;-85
2022/03/20 04:21:46;;;;;;;25.83;18.23;;;6.20;99.90;;;;;;6103662;23;20187;-85
2022/03/20 04:24:16;;;;;;;25.52;16.27;;;6.20;99.90;;;;;;6117850;23;20180;-86
2022/03/20 04:26:55;;;;;;;24.60;17.63;;;6.20;99.90;;;;;;6119494;23;20181;-87
2022/03/20 04:29:31;;;;;;;23.00;16.98;;;6.20;99.90;;;;;;6110948;23;20252;-87
2022/03/20 04:32:04;;;;;;;25.02;17.08;;;6.30;99.90;;;;;;6110854;23;20197;-87
2022/03/20 04:34:37;;;;;;;22.20;17.17;;;6.30;99.90;;;;;;6104762;23;20180;-87
2022/03/20 04:37:10;;;;;;;25.90;16.83;;;5.90;99.90;;;;;;6102286;23;20477;-87
2022/03/20 04:39:44;;;;;;;21.50;15.65;;;6.30;99.90;;;;;;6103038;23;20173;-87
2022/03/20 04:42:18;;;;;;;25.33;16.40;;;6.30;99.90;;;;;;6103924;23;20196;-85
2022/03/20 04:45:18;;;;;;;26.75;17.15;;;6.20;99.90;;;;;;6111205;23;20187;-84
2022/03/20 05:05:15;;;;;;;23.58;17.27;;;6.40;99.90;;;;;;6098900;23;20272;-86
2022/03/20 05:08:13;;;;;;;24.27;16.65;;;6.40;99.90;;;;;;6112804;23;20204;-85
2022/03/20 05:13:44;;;;;;;25.40;16.60;;;6.50;99.90;;;;;;6107784;23;20504;-87
2022/03/20 05:16:29;;;;;;;31.42;16.90;;;6.60;99.90;;;;;;6101935;23;20209;-87
2022/03/20 05:19:18;;;;;;;26.35;18.20;;;6.60;99.90;;;;;;6115318;23;20187;-87
2022/03/20 05:21:53;;;;;;;25.95;17.30;;;6.70;99.90;;;;;;6122941;23;20193;-86
2022/03/20 07:13:56;;;;;;;28.58;20.73;;;8.30;96.10;;;;;;6043382;23;20205;-85
2022/03/20 07:19:35;;;;;;;29.83;20.92;;;8.50;96.00;;;;;;6020590;23;20184;-85
2022/03/20 07:22:12;;;;;;;28.27;20.75;;;8.60;95.90;;;;;;6064934;23;20198;-85
2022/03/20 07:24:41;;;;;;;30.40;22.07;;;8.50;95.50;;;;;;6064738;23;20201;-86
2022/03/20 07:30:21;;;;;;;31.00;21.50;;;8.70;95.60;;;;;;6054188;23;20429;-86
2022/03/20 09:34:23;;;;;;;27.27;20.07;;;12.70;82.00;;;;;;5846998;24;20403;-87
2022/03/20 09:37:01;;;;;;;26.40;19.03;;;12.80;82.00;;;;;;5947979;24;20413;-86
2022/03/20 09:39:28;;;;;;;25.37;19.77;;;12.90;81.60;;;;;;5999186;23;20467;-85
2022/03/20 09:41:59;;;;;;;26.53;20.27;;;13.10;81.00;;;;;;6023455;23;20459;-86
2022/03/20 09:44:49;;;;;;;23.13;19.27;;;13.30;79.90;;;;;;6032679;23;20990;-86
2022/03/20 09:47:24;;;;;;;25.17;18.53;;;13.40;79.30;;;;;;6024560;23;20400;-86
2022/03/20 09:49:58;;;;;;;26.77;18.13;;;13.60;79.00;;;;;;6031418;23;20431;-86
2022/03/20 09:52:36;;;;;;;27.20;18.50;;;13.80;79.20;;;;;;6031179;23;20386;-86
2022/03/20 09:55:14;;;;;;;22.53;17.83;;;14.00;78.00;;;;;;6020861;23;20556;-87
2022/03/20 09:57:49;;;;;;;22.20;18.50;;;14.20;77.00;;;;;;6014745;23;20359;-86
2022/03/20 10:03:25;;;;;;;27.70;19.20;;;14.80;75.80;;;;;;6016203;23;20922;-87
2022/03/20 10:06:49;;;;;;;27.20;18.40;;;15.20;76.00;;;;;;6015074;23;20420;-87
2022/03/20 10:12:53;;;;;;;;;;;;;;;;;;;;;
2022/03/20 10:20:13;;;;;;;;;;;;;;;;;;;;;
2022/03/20 10:23:10;;;;;;;24.10;17.73;;;15.40;77.70;;;;;;6016691;23;20399;-86
2022/03/20 10:26:07;;;;;;;26.53;18.03;;;15.40;77.60;;;;;;6014699;23;20386;-86
2022/03/20 10:29:15;;;;;;;23.53;18.27;;;15.40;77.90;;;;;;6017352;23;20415;-86
2022/03/20 11:16:11;;;;;;;20.80;14.73;;;15.50;78.30;;;;;;6035884;23;20461;-86
2022/03/20 13:55:43;;;;;;;17.77;12.27;;;17.30;59.70;;;;;;5993672;24;20419;-87
2022/03/20 13:59:07;;;;;;;;;;;;;;;;;;;;;
2022/03/20 15:45:32;;;;;;;21.00;15.87;;;17.80;51.80;;;;;;5912182;24;20439;-87
2022/03/20 15:48:42;;;;;;;22.53;17.10;;;17.60;52.30;;;;;;5998851;24;20395;-86
2022/03/20 17:19:59;;;;;;;20.90;15.27;;;15.30;51.80;;;;;;6108089;23;20411;-87
2022/03/20 17:22:55;;;;;;;20.80;14.60;;;15.30;52.40;;;;;;6110767;23;20384;-89
2022/03/20 17:26:10;;;;;;;23.13;14.50;;;15.20;51.80;;;;;;6100234;23;20464;-86
2022/03/20 17:31:54;;;;;;;23.23;14.60;;;15.10;52.30;;;;;;6085407;23;20458;-86
2022/03/20 17:42:35;;;;;;;18.30;13.90;;;14.90;53.20;;;;;;6101951;23;20426;-86
2022/03/20 17:51:14;;;;;;;20.47;15.10;;;15.00;54.00;;;;;;6114254;23;20927;-87
2022/03/20 17:54:39;;;;;;;20.60;14.13;;;14.90;54.20;;;;;;6118161;23;20409;-87
2022/03/20 17:57:43;;;;;;;19.93;14.20;;;14.80;54.60;;;;;;6118132;23;20392;-87
2022/03/20 18:00:43;;;;;;;21.10;15.10;;;14.80;54.90;;;;;;6114771;23;20417;-87
2022/03/20 18:10:01;;;;;;;19.57;14.20;;;14.50;55.50;;;;;;5998163;24;20901;-87
2022/03/20 18:39:44;;;;;;;22.53;15.80;;;14.40;56.50;;;;;;6099344;23;20422;-86
2022/03/20 18:42:47;;;;;;;;;;;;;;;;;;;;;
2022/03/20 18:45:25;;;;;;;23.70;16.37;;;14.30;57.20;;;;;;6106500;23;20416;-86
2022/03/20 19:26:53;;;;;;;17.30;13.63;;;13.50;58.70;;;;;;6113704;23;20459;-87
